Sand Springs, Arizona
Current Conditions -  °F | °C
As of 4:56 AM on Tuesday 27 Jan 2015 (Local Time) from KINW Reporting Station
Broken Clouds Broken Clouds  
Wind Chill: 36°   Ceiling: 6500
Heat Index: 40°   Visibility: 10mi
Dew Point: 33°   Wind: 6mph
Humidity: 77%   Direction: 130°SE
Pressure: 30.29"   Gusts: NA
Location:  35.8773°N, 110.619°W
Report Text: KINW 271156Z AUTO 13005KT 10SM BKN065 04/01 A3029 RMK AO2 SLP239 60000 T00440006 10044 20033 55001
Loading
Personal Weather Stations






























Interactive Weather Map New forecast layout! Learn more

10-Day Weather Forecast

Advertisements
Track Severe Weather on mobile